Terminal Aerodrome Forecast
Issued by NWS Pittsburgh, PA

Home | Current Version | Previous Version | Text Only | Print | Product List | Glossary On
Versions: 1 2 3 4 5 6 7 8 9 10 11 12 13 14 15 16 17 18 19 20 21 22 23 24 25 26 27 28 29 30 31 32
108
FTUS41 KPBZ 161510 AAB
TAFPIT
TAF AMD
KPIT 161510Z 1615/1718 20005KT 2SM -SN SCT010 OVC035
     FM161800 24007KT 6SM -SN SCT015 BKN025
     FM170100 28010KT P6SM OVC025=

USA.gov is the U.S. government's official web portal to all federal, state and local government web resources and services.